Deqen, China
Current Conditions -  °F | °C
As of 9:00 PM on Saturday 25 Oct 2014 (Local Time) from ZPPP Reporting Station
Few Clouds Few Clouds  
Wind Chill: 55°   Ceiling: Unl
Heat Index: 55°   Visibility: 6mi
Dew Point: 46°   Wind: 4mph
Humidity: 72%   Direction: 210°SSW
Pressure: 30.27"   Gusts: NA
Location:  28.5°N, 98.9°E
Report Text: ZPPP 251300Z 21002MPS 9999 FEW026 13/08 Q1025 NOSIG
Loading
Personal Weather Stations






























Interactive Weather Map
Tropical Storm Tracking
New forecast layout! Learn more

10-Day Weather Forecast

Advertisements
Track Severe Weather on mobile